createdAt,value
2023-05-05T04:17:50.400Z,6.70
2023-05-05T04:21:01.648Z,6.20
2023-05-05T04:24:11.364Z,6.70
2023-05-05T04:27:20.903Z,6.60
2023-05-05T04:30:29.385Z,6.50
2023-05-05T04:33:37.461Z,6.18
2023-05-05T04:36:45.571Z,6.75
2023-05-05T04:39:53.792Z,6.50
2023-05-05T04:42:59.838Z,6.20
2023-05-05T04:46:09.181Z,5.97
2023-05-05T04:49:14.340Z,6.55
2023-05-05T04:52:19.465Z,5.78
2023-05-05T04:55:23.525Z,6.12
2023-05-05T04:58:28.944Z,5.82
2023-05-05T05:01:33.041Z,6.28
2023-05-05T05:04:39.286Z,5.90
2023-05-05T05:07:43.316Z,5.78
2023-05-05T05:10:49.029Z,6.12
2023-05-05T05:13:53.432Z,5.95
2023-05-05T05:16:58.347Z,5.68
2023-05-05T05:20:06.047Z,6.10
2023-05-05T05:23:16.481Z,6.47
2023-05-05T05:26:22.896Z,6.82
2023-05-05T05:29:27.479Z,7.10
2023-05-05T05:32:32.904Z,6.15
2023-05-05T05:35:41.094Z,5.30
2023-05-05T05:38:49.335Z,4.87
2023-05-05T05:41:56.656Z,5.15
2023-05-05T05:45:04.658Z,5.30
2023-05-05T05:48:10.852Z,5.80
2023-05-05T05:51:18.489Z,5.32
2023-05-05T05:54:26.728Z,5.12
2023-05-05T05:57:33.707Z,5.62
2023-05-05T06:00:41.905Z,4.78
2023-05-05T06:03:51.227Z,5.30
2023-05-05T06:06:58.140Z,5.10
2023-05-05T06:10:25.798Z,5.00
2023-05-05T06:13:30.762Z,5.30
2023-05-05T06:16:35.191Z,4.75
2023-05-05T06:19:41.111Z,4.30
2023-05-05T06:22:48.874Z,4.60
2023-05-05T06:25:56.158Z,5.03
2023-05-05T06:29:00.594Z,5.15
2023-05-05T06:32:08.634Z,4.57
2023-05-05T06:35:16.375Z,4.60
2023-05-05T06:38:22.450Z,5.03
2023-05-05T06:41:31.009Z,4.95
2023-05-05T06:44:39.262Z,4.45
2023-05-05T06:47:47.556Z,4.82
2023-05-05T06:50:54.573Z,4.75
2023-05-05T06:54:00.698Z,4.87
2023-05-05T06:57:05.569Z,4.28
2023-05-05T07:00:15.600Z,5.15
2023-05-05T07:03:21.750Z,4.72
2023-05-05T07:06:27.340Z,4.40
2023-05-05T07:09:33.316Z,4.60
2023-05-05T07:12:39.611Z,4.90
2023-05-05T07:15:47.135Z,4.70
2023-05-05T07:18:53.873Z,4.68
2023-05-05T07:21:58.439Z,5.95
2023-05-05T07:25:05.408Z,4.75
2023-05-05T07:28:11.201Z,4.45
2023-05-05T07:31:14.988Z,4.40
2023-05-05T07:34:18.757Z,5.10
2023-05-05T07:37:23.552Z,4.32
2023-05-05T07:40:28.952Z,4.37
2023-05-05T07:43:34.161Z,4.50
2023-05-05T07:46:39.135Z,5.05
2023-05-05T07:49:45.647Z,4.22
2023-05-05T07:53:02.449Z,4.45
2023-05-05T07:56:19.346Z,4.43
2023-05-05T07:59:24.520Z,4.25
2023-05-05T08:02:30.802Z,4.30
2023-05-05T08:05:38.742Z,4.50
2023-05-05T08:08:43.988Z,4.30
2023-05-05T08:11:49.853Z,4.75
2023-05-05T08:14:54.665Z,5.50
2023-05-05T08:17:59.559Z,4.93
2023-05-05T08:21:08.084Z,4.80
2023-05-05T08:24:16.420Z,4.93
2023-05-05T08:27:21.733Z,5.20
2023-05-05T08:30:26.952Z,4.85
2023-05-05T08:33:33.527Z,5.07
2023-05-05T08:36:38.891Z,5.45
2023-05-05T08:39:44.040Z,5.25
2023-05-05T08:42:51.250Z,4.80
2023-05-05T08:45:58.151Z,4.62
2023-05-05T08:49:06.423Z,5.35
2023-05-05T08:52:14.631Z,4.70
2023-05-05T08:55:31.603Z,5.57
2023-05-05T08:58:38.587Z,5.60
2023-05-05T09:01:45.271Z,5.32
2023-05-05T09:04:50.052Z,5.35
2023-05-05T09:07:54.505Z,5.68
2023-05-05T09:10:58.583Z,5.40
2023-05-05T09:14:03.571Z,5.37
2023-05-05T09:17:24.568Z,5.70
2023-05-05T09:20:37.867Z,5.18
2023-05-05T09:24:13.158Z,5.25
2023-05-05T09:27:24.778Z,5.70
2023-05-05T09:30:28.922Z,5.87
2023-05-05T09:33:33.281Z,5.37
2023-05-05T09:36:45.428Z,5.25
2023-05-05T09:39:56.859Z,4.90
2023-05-05T09:43:04.201Z,4.70
2023-05-05T09:46:12.222Z,5.05
2023-05-05T09:49:19.132Z,5.90
2023-05-05T09:52:25.424Z,5.57
2023-05-05T09:55:30.920Z,5.28
2023-05-05T09:58:34.086Z,5.40
2023-05-05T10:01:38.607Z,5.72
2023-05-05T10:04:45.429Z,5.18
2023-05-05T10:07:52.261Z,4.78
2023-05-05T10:11:01.926Z,4.43
2023-05-05T10:14:08.590Z,5.00
2023-05-05T10:17:16.135Z,4.07
2023-05-05T10:20:23.491Z,5.50
2023-05-05T10:23:40.557Z,5.20
2023-05-05T10:26:49.146Z,5.18
2023-05-05T10:30:03.929Z,3.60
2023-05-05T10:36:33.277Z,4.00
2023-05-05T10:39:41.599Z,3.50
2023-05-05T10:42:49.226Z,4.12
2023-05-05T10:45:56.640Z,4.22
2023-05-05T10:49:33.252Z,4.20
2023-05-05T10:53:14.193Z,4.70
2023-05-05T10:56:27.050Z,4.43
2023-05-05T10:59:39.529Z,4.03
2023-05-05T11:02:45.285Z,4.28
2023-05-05T11:06:05.959Z,3.97
2023-05-05T11:09:29.233Z,3.92
2023-05-05T11:12:58.057Z,4.00
2023-05-05T11:16:05.673Z,4.07
2023-05-05T11:19:43.968Z,3.62
2023-05-05T11:23:09.070Z,4.37
2023-05-05T11:26:15.204Z,4.30
2023-05-05T11:29:19.306Z,4.47
2023-05-05T11:32:22.553Z,4.43
2023-05-05T11:36:05.997Z,4.22
2023-05-05T11:39:30.909Z,4.40
2023-05-05T11:42:36.055Z,4.10
2023-05-05T11:45:39.634Z,3.80
2023-05-05T11:48:47.878Z,4.12
2023-05-05T11:52:05.090Z,3.60
2023-05-05T11:55:10.730Z,4.18
2023-05-05T11:58:21.786Z,4.97
2023-05-05T12:01:27.347Z,4.15
2023-05-05T12:04:34.742Z,4.22
2023-05-05T12:07:39.273Z,4.07
2023-05-05T12:10:43.289Z,3.15
2023-05-05T12:13:47.974Z,3.90
2023-05-05T12:16:56.126Z,3.50
2023-05-05T12:20:00.620Z,4.90
2023-05-05T12:23:06.445Z,4.68
2023-05-05T12:26:30.484Z,4.57
2023-05-05T12:29:37.904Z,5.20
2023-05-05T12:32:43.478Z,4.20
2023-05-05T12:35:50.423Z,3.90
2023-05-05T12:38:54.042Z,4.75
2023-05-05T12:42:07.071Z,4.45
2023-05-05T12:45:18.097Z,5.00
2023-05-05T12:48:24.788Z,4.10
2023-05-05T12:51:34.680Z,3.97
2023-05-05T12:55:03.251Z,5.07
2023-05-05T12:58:10.627Z,5.10
2023-05-05T13:01:17.932Z,5.47
2023-05-05T13:04:24.849Z,5.03
2023-05-05T13:07:34.587Z,4.68
2023-05-05T13:10:56.985Z,5.87
2023-05-05T13:14:04.338Z,4.87
2023-05-05T13:17:08.855Z,4.80
2023-05-05T13:20:16.629Z,4.93
2023-05-05T13:23:25.369Z,4.78
2023-05-05T13:26:34.019Z,5.25
2023-05-05T13:29:42.950Z,5.60
2023-05-05T13:32:49.398Z,4.78
2023-05-05T13:35:55.674Z,5.20
2023-05-05T13:39:02.587Z,4.93
2023-05-05T13:42:10.264Z,4.60
2023-05-05T13:45:21.430Z,5.37
2023-05-05T13:48:29.694Z,5.55
2023-05-05T13:51:37.628Z,6.20
2023-05-05T13:54:46.561Z,5.70
2023-05-05T13:57:53.357Z,6.00
2023-05-05T14:01:00.259Z,5.30
2023-05-05T14:04:06.570Z,5.95
2023-05-05T14:07:13.037Z,5.20
2023-05-05T14:10:22.071Z,5.90
2023-05-05T14:13:28.246Z,4.97
2023-05-05T14:16:36.401Z,4.95
2023-05-05T14:19:45.002Z,4.55
2023-05-05T14:22:51.803Z,4.82
2023-05-05T14:25:59.304Z,4.97
2023-05-05T14:29:05.854Z,4.70
2023-05-05T14:32:14.125Z,5.00
2023-05-05T14:35:22.112Z,5.00
2023-05-05T14:38:26.619Z,4.30
2023-05-05T14:41:35.665Z,4.37
2023-05-05T14:44:42.107Z,5.32
2023-05-05T14:47:49.240Z,4.90
2023-05-05T14:50:55.057Z,4.90
2023-05-05T14:54:02.509Z,4.93
2023-05-05T14:57:09.668Z,4.60
2023-05-05T15:00:18.377Z,4.47
2023-05-05T15:03:25.755Z,4.10
2023-05-05T15:06:36.917Z,4.50
